createdAt,value
2019-05-01T00:00:31.460Z,90.40
2019-05-01T00:03:23.089Z,90.30
2019-05-01T00:05:56.201Z,90.40
2019-05-01T00:08:25.901Z,90.50
2019-05-01T00:10:55.656Z,90.30
2019-05-01T00:13:25.364Z,90.10
2019-05-01T00:15:55.461Z,90.30
2019-05-01T00:18:25.537Z,90.20
2019-05-01T00:20:55.227Z,90.30
2019-05-01T00:23:24.935Z,90.30
2019-05-01T00:25:54.598Z,90.10
2019-05-01T00:28:24.314Z,90.20
2019-05-01T00:30:54.029Z,90.00
2019-05-01T00:33:23.705Z,90.20
2019-05-01T00:35:53.438Z,90.00
2019-05-01T00:38:23.483Z,90.10
2019-05-01T00:40:53.149Z,89.90
2019-05-01T00:43:22.882Z,90.10
2019-05-01T00:45:52.613Z,90.00
2019-05-01T00:48:22.322Z,90.20
2019-05-01T00:50:52.013Z,90.20
2019-05-01T00:53:23.210Z,90.20
2019-05-01T00:56:16.332Z,90.10
2019-05-01T00:59:05.071Z,90.10
2019-05-01T01:02:02.756Z,90.20
2019-05-01T01:04:32.526Z,90.10
2019-05-01T01:07:02.211Z,90.30
2019-05-01T01:09:31.918Z,90.30
2019-05-01T01:12:01.633Z,90.30
2019-05-01T01:14:31.465Z,90.30
2019-05-01T01:17:01.179Z,90.00
2019-05-01T01:19:30.962Z,90.10
2019-05-01T01:22:00.680Z,90.20
2019-05-01T01:24:30.507Z,90.00
2019-05-01T01:27:00.780Z,90.00
2019-05-01T01:29:30.530Z,90.20
2019-05-01T01:32:00.322Z,90.20
2019-05-01T01:34:30.077Z,90.10
2019-05-01T01:36:59.878Z,90.10
2019-05-01T01:39:29.626Z,90.10
2019-05-01T01:41:59.549Z,89.90
2019-05-01T01:44:43.391Z,90.00
2019-05-01T01:47:13.232Z,89.90
2019-05-01T01:49:43.192Z,89.80
2019-05-01T01:52:13.652Z,89.40
2019-05-01T01:54:43.440Z,89.30
2019-05-01T01:57:13.715Z,88.60
2019-05-01T01:59:43.913Z,88.80
2019-05-01T02:02:21.486Z,88.60
2019-05-01T02:05:22.490Z,88.50
2019-05-01T02:07:53.039Z,89.20
2019-05-01T02:10:22.905Z,88.50
2019-05-01T02:12:52.955Z,89.00
2019-05-01T02:15:22.655Z,88.30
2019-05-01T02:17:52.507Z,89.40
2019-05-01T02:20:23.831Z,89.70
2019-05-01T02:22:53.547Z,90.20
2019-05-01T02:25:23.699Z,87.60
2019-05-01T02:28:11.946Z,87.40
2019-05-01T02:30:43.838Z,90.00
2019-05-01T02:33:14.574Z,90.10
2019-05-01T02:35:45.385Z,90.20
2019-05-01T02:38:17.213Z,90.40
2019-05-01T02:40:57.056Z,90.20
2019-05-01T02:43:29.720Z,90.40
2019-05-01T02:46:01.831Z,90.60
2019-05-01T02:48:35.429Z,90.60
2019-05-01T02:51:06.613Z,90.60
2019-05-01T02:53:39.241Z,90.70
2019-05-01T02:56:23.336Z,90.80
2019-05-01T02:58:55.799Z,90.80
2019-05-01T03:02:09.983Z,90.80
2019-05-01T03:04:40.505Z,90.70
2019-05-01T03:07:11.007Z,90.80
2019-05-01T03:09:41.942Z,90.70
2019-05-01T03:12:13.807Z,90.60
2019-05-01T03:14:46.606Z,90.70
2019-05-01T03:17:34.955Z,90.60
2019-05-01T03:20:21.970Z,90.60
2019-05-01T03:23:11.049Z,90.50
2019-05-01T03:25:40.813Z,90.60
2019-05-01T03:28:10.894Z,90.70
2019-05-01T03:30:40.689Z,90.90
2019-05-01T03:33:10.561Z,90.60
2019-05-01T03:35:41.002Z,90.60
2019-05-01T03:38:10.914Z,90.70
2019-05-01T03:40:41.727Z,90.50
2019-05-01T03:43:12.714Z,90.30
2019-05-01T03:45:43.630Z,90.40
2019-05-01T03:48:13.714Z,90.40
2019-05-01T03:50:46.867Z,90.50
2019-05-01T03:53:15.346Z,90.30
2019-05-01T03:55:45.285Z,90.30
2019-05-01T03:58:15.243Z,90.40
2019-05-01T04:01:03.997Z,90.40
2019-05-01T04:03:37.540Z,90.30
2019-05-01T04:06:07.500Z,90.50
2019-05-01T04:08:37.722Z,90.40
2019-05-01T04:11:07.577Z,90.30
2019-05-01T04:13:37.351Z,90.20
2019-05-01T04:16:07.640Z,90.30
2019-05-01T04:18:37.649Z,90.40
2019-05-01T04:21:09.171Z,90.50
2019-05-01T04:23:39.201Z,90.30
2019-05-01T04:26:09.154Z,90.40
2019-05-01T04:29:01.308Z,90.20
2019-05-01T04:31:36.540Z,90.20
2019-05-01T04:34:16.903Z,90.00
2019-05-01T04:36:50.168Z,90.00
2019-05-01T04:39:20.430Z,90.10
2019-05-01T04:41:53.362Z,90.00
2019-05-01T04:44:23.337Z,90.00
2019-05-01T04:46:53.625Z,90.10
2019-05-01T04:49:23.730Z,90.20
2019-05-01T04:51:53.602Z,90.00
2019-05-01T04:54:23.263Z,89.90
2019-05-01T04:56:53.084Z,89.80
2019-05-01T04:59:22.973Z,89.70
2019-05-01T05:01:57.217Z,89.70
2019-05-01T05:04:27.166Z,89.60
2019-05-01T05:06:58.934Z,89.40
2019-05-01T05:09:48.664Z,89.80
2019-05-01T05:12:40.716Z,90.00
2019-05-01T05:15:36.288Z,90.00
2019-05-01T05:18:08.723Z,89.70
2019-05-01T05:20:40.720Z,90.10
2019-05-01T05:23:10.867Z,89.80
2019-05-01T05:25:41.283Z,89.70
2019-05-01T05:28:11.674Z,89.70
2019-05-01T05:30:46.147Z,89.40
2019-05-01T05:33:18.969Z,90.00
2019-05-01T05:35:52.396Z,90.00
2019-05-01T05:38:57.960Z,89.90
2019-05-01T05:41:28.991Z,89.30
2019-05-01T05:43:58.887Z,89.30
2019-05-01T05:46:28.961Z,88.60
2019-05-01T05:48:58.695Z,88.40
2019-05-01T05:51:58.875Z,88.90
2019-05-01T05:55:01.557Z,88.50
2019-05-01T05:57:45.849Z,88.60
2019-05-01T06:00:34.725Z,89.10
2019-05-01T06:03:31.397Z,88.60
2019-05-01T06:06:18.272Z,88.20
2019-05-01T06:08:50.692Z,87.80
2019-05-01T06:11:38.309Z,89.10
2019-05-01T06:14:35.403Z,87.70
2019-05-01T06:17:28.391Z,86.80
2019-05-01T06:20:05.214Z,87.50
2019-05-01T06:22:54.019Z,88.10
2019-05-01T06:25:31.105Z,87.50
2019-05-01T06:28:01.025Z,87.30
2019-05-01T06:30:31.309Z,87.10
2019-05-01T06:33:04.115Z,87.90
2019-05-01T06:35:34.007Z,86.90
2019-05-01T06:38:11.635Z,87.00
2019-05-01T06:40:43.896Z,84.40
2019-05-01T06:43:30.648Z,83.50
2019-05-01T06:46:29.213Z,83.50
2019-05-01T06:49:11.996Z,82.50
2019-05-01T06:51:48.084Z,83.10
2019-05-01T06:54:19.179Z,83.70
2019-05-01T06:56:50.785Z,81.40
2019-05-01T06:59:21.218Z,83.20
2019-05-01T07:01:53.072Z,83.70
2019-05-01T07:04:23.995Z,83.10
2019-05-01T07:07:01.926Z,81.40
2019-05-01T07:09:31.049Z,82.00
2019-05-01T07:12:02.704Z,82.50
2019-05-01T07:14:32.836Z,83.50
2019-05-01T07:17:02.586Z,82.90
2019-05-01T07:19:50.738Z,76.70
2019-05-01T07:22:21.047Z,78.40
2019-05-01T07:24:51.000Z,79.20
2019-05-01T07:27:23.717Z,77.50
2019-05-01T07:29:54.999Z,77.10
2019-05-01T07:32:24.959Z,74.70
2019-05-01T07:34:56.935Z,76.10
2019-05-01T07:37:27.747Z,74.50
2019-05-01T07:39:57.785Z,72.60
2019-05-01T07:42:32.417Z,75.60
2019-05-01T07:45:26.561Z,75.80
2019-05-01T07:48:00.912Z,77.60
2019-05-01T07:50:31.910Z,69.30
2019-05-01T07:53:01.249Z,73.60
2019-05-01T07:55:37.895Z,72.00
2019-05-01T07:58:16.044Z,71.90
2019-05-01T08:00:59.325Z,77.40
2019-05-01T08:03:29.009Z,76.60
2019-05-01T08:05:58.744Z,75.30
2019-05-01T08:08:28.458Z,74.30
2019-05-01T08:10:59.839Z,75.60
2019-05-01T08:13:30.623Z,68.30
2019-05-01T08:16:02.007Z,68.20
2019-05-01T08:18:38.673Z,68.20
2019-05-01T08:21:26.202Z,66.30
2019-05-01T08:23:56.068Z,67.00
2019-05-01T08:26:25.700Z,67.70
2019-05-01T08:29:23.099Z,58.90
2019-05-01T08:32:13.532Z,61.00
2019-05-01T08:34:49.112Z,61.10
2019-05-01T08:37:17.755Z,61.90
2019-05-01T08:39:46.016Z,62.50
2019-05-01T08:42:15.755Z,60.10
2019-05-01T08:45:10.532Z,57.10
2019-05-01T08:47:42.392Z,58.70
2019-05-01T08:50:24.895Z,57.70
2019-05-01T08:52:53.741Z,63.50
2019-05-01T08:55:23.430Z,61.10
2019-05-01T08:57:53.195Z,59.60
2019-05-01T09:00:23.009Z,63.70
2019-05-01T09:02:52.735Z,60.30
2019-05-01T09:05:29.123Z,61.30
2019-05-01T09:07:55.956Z,64.60
2019-05-01T09:10:25.139Z,64.40
2019-05-01T09:12:54.784Z,57.80
2019-05-01T09:15:24.500Z,57.30
2019-05-01T09:17:54.129Z,62.60
2019-05-01T09:20:27.988Z,59.50
2019-05-01T09:22:57.622Z,57.40
2019-05-01T09:25:35.292Z,59.30
2019-05-01T09:28:18.734Z,59.10
2019-05-01T09:30:57.935Z,61.70
2019-05-01T09:33:26.168Z,59.40
2019-05-01T09:35:56.896Z,59.80
2019-05-01T09:38:26.808Z,55.90
2019-05-01T09:40:56.660Z,56.30
2019-05-01T09:43:26.451Z,57.90
2019-05-01T09:45:57.455Z,52.80
2019-05-01T09:48:27.224Z,52.50
2019-05-01T09:51:18.691Z,55.00
2019-05-01T09:54:00.242Z,56.10
2019-05-01T09:56:30.006Z,60.70
2019-05-01T09:58:59.568Z,56.30
2019-05-01T10:01:32.822Z,54.10
2019-05-01T10:04:00.614Z,53.40
2019-05-01T10:06:30.267Z,54.00
2019-05-01T10:08:59.868Z,55.90
2019-05-01T10:11:29.496Z,55.90
2019-05-01T10:13:59.732Z,54.20
2019-05-01T10:16:29.408Z,53.80
2019-05-01T10:18:59.259Z,54.00
2019-05-01T10:21:29.020Z,55.80
2019-05-01T10:23:58.801Z,54.30
2019-05-01T10:26:29.969Z,55.70
2019-05-01T10:29:25.908Z,57.20
2019-05-01T10:32:16.881Z,52.40
2019-05-01T10:35:02.696Z,50.90
2019-05-01T10:37:33.865Z,48.40
2019-05-01T10:40:04.038Z,47.20
2019-05-01T10:42:33.764Z,54.60
2019-05-01T10:45:03.458Z,51.20
2019-05-01T10:47:33.145Z,49.90
2019-05-01T10:50:02.840Z,46.90
2019-05-01T10:52:34.011Z,48.90
2019-05-01T10:55:03.820Z,51.40
2019-05-01T10:57:35.038Z,51.90
2019-05-01T11:00:06.153Z,49.50
2019-05-01T11:02:35.805Z,53.90
2019-05-01T11:05:06.199Z,54.20
2019-05-01T11:07:35.991Z,53.10
2019-05-01T11:10:06.504Z,54.50
2019-05-01T11:12:36.307Z,49.80
2019-05-01T11:15:06.931Z,54.50
2019-05-01T11:17:36.601Z,50.60
2019-05-01T11:20:07.195Z,49.00
2019-05-01T11:22:36.874Z,48.00
2019-05-01T11:25:07.205Z,49.10
2019-05-01T11:27:36.883Z,46.10
2019-05-01T11:30:07.417Z,50.70
2019-05-01T11:33:05.020Z,48.10
2019-05-01T11:36:08.983Z,50.40
2019-05-01T11:39:05.010Z,49.90
2019-05-01T11:41:44.596Z,49.90
2019-05-01T11:44:14.310Z,48.10
2019-05-01T11:46:43.975Z,45.10
2019-05-01T11:49:13.676Z,47.50
2019-05-01T11:51:43.380Z,50.20
2019-05-01T11:54:13.055Z,51.00
2019-05-01T11:56:42.668Z,47.40
2019-05-01T11:59:12.376Z,49.60
2019-05-01T12:01:42.104Z,48.40
2019-05-01T12:04:11.822Z,50.50
2019-05-01T12:06:41.640Z,51.50
2019-05-01T12:09:11.333Z,48.30
2019-05-01T12:11:42.674Z,48.00
2019-05-01T12:14:12.388Z,48.20
2019-05-01T12:17:13.179Z,47.40
2019-05-01T12:19:42.828Z,50.50
2019-05-01T12:22:12.497Z,51.40
2019-05-01T12:24:42.150Z,54.00
2019-05-01T12:27:11.807Z,51.40
2019-05-01T12:29:41.480Z,49.70
2019-05-01T12:32:11.152Z,46.60
2019-05-01T12:34:40.813Z,45.20
2019-05-01T12:37:24.399Z,48.10
2019-05-01T12:39:53.952Z,47.10
2019-05-01T12:42:24.692Z,49.60
2019-05-01T12:44:54.317Z,50.50
2019-05-01T12:47:52.171Z,47.50
2019-05-01T12:50:21.910Z,48.20
2019-05-01T12:53:13.694Z,47.60
2019-05-01T12:56:02.508Z,46.50
2019-05-01T12:58:32.157Z,45.40
2019-05-01T13:01:01.787Z,48.20
2019-05-01T13:03:31.476Z,50.10
2019-05-01T13:06:01.180Z,48.70
2019-05-01T13:08:30.888Z,46.50
2019-05-01T13:11:01.193Z,49.00
2019-05-01T13:13:30.905Z,47.40
2019-05-01T13:16:00.544Z,49.70
2019-05-01T13:18:30.252Z,48.30
2019-05-01T13:20:59.883Z,46.50
2019-05-01T13:23:29.608Z,48.20
2019-05-01T13:26:06.087Z,48.40
2019-05-01T13:28:58.786Z,49.80
2019-05-01T13:31:34.544Z,49.30
2019-05-01T13:34:04.367Z,49.90
2019-05-01T13:36:34.065Z,50.90
2019-05-01T13:39:03.747Z,50.20
2019-05-01T13:41:33.527Z,51.10
2019-05-01T13:44:03.234Z,50.90
2019-05-01T13:46:32.910Z,52.90
2019-05-01T13:49:02.678Z,52.10
2019-05-01T13:51:32.305Z,52.40
2019-05-01T13:54:01.984Z,51.40
2019-05-01T13:56:31.681Z,52.10
2019-05-01T13:59:01.332Z,50.80
2019-05-01T14:01:31.012Z,53.70
2019-05-01T14:04:00.684Z,52.50
2019-05-01T14:06:30.363Z,52.90
2019-05-01T14:09:06.373Z,54.20
2019-05-01T14:11:36.206Z,55.00
2019-05-01T14:14:05.864Z,56.10
2019-05-01T14:16:35.538Z,55.60
2019-05-01T14:19:05.189Z,58.00
2019-05-01T14:21:39.958Z,57.30
2019-05-01T14:24:46.620Z,56.40
2019-05-01T14:27:16.259Z,57.70
2019-05-01T14:29:47.878Z,58.40
2019-05-01T14:32:17.572Z,58.40
2019-05-01T14:34:47.262Z,58.10
2019-05-01T14:37:29.055Z,57.70
2019-05-01T14:39:48.583Z,57.60
2019-05-01T14:42:18.228Z,59.00
2019-05-01T14:44:50.613Z,57.50
2019-05-01T14:47:19.295Z,59.50
2019-05-01T14:49:51.362Z,58.80
2019-05-01T14:52:22.093Z,59.60
2019-05-01T14:54:52.403Z,59.90
2019-05-01T14:57:23.803Z,58.60
2019-05-01T14:59:53.847Z,58.90
2019-05-01T15:02:24.080Z,60.90
2019-05-01T15:04:54.808Z,60.10
2019-05-01T15:07:25.568Z,60.00
2019-05-01T15:09:56.240Z,61.10
2019-05-01T15:12:28.199Z,59.00
2019-05-01T15:15:17.547Z,59.90
2019-05-01T15:18:01.247Z,57.70
2019-05-01T15:20:32.439Z,57.10
2019-05-01T15:23:04.814Z,57.70
2019-05-01T15:25:34.977Z,57.30
2019-05-01T15:28:05.277Z,57.00
2019-05-01T15:30:35.659Z,57.00
2019-05-01T15:33:06.105Z,57.20
2019-05-01T15:35:38.204Z,58.00
2019-05-01T15:38:09.007Z,57.50
2019-05-01T15:40:45.557Z,59.00
2019-05-01T15:43:33.368Z,59.10
2019-05-01T15:46:04.104Z,58.00
2019-05-01T15:48:34.767Z,59.80
2019-05-01T15:51:06.076Z,57.80
2019-05-01T15:53:36.367Z,58.40
2019-05-01T15:56:07.745Z,58.40
2019-05-01T15:58:38.511Z,57.60
2019-05-01T16:01:09.262Z,57.80
2019-05-01T16:03:39.918Z,58.10
2019-05-01T16:06:11.528Z,57.40
2019-05-01T16:08:42.852Z,58.10
2019-05-01T16:11:44.210Z,58.60
2019-05-01T16:14:15.839Z,58.10
2019-05-01T16:16:46.568Z,58.60
2019-05-01T16:19:16.614Z,58.90
2019-05-01T16:21:46.247Z,58.20
2019-05-01T16:24:15.863Z,58.80
2019-05-01T16:26:47.593Z,58.60
2019-05-01T16:29:17.264Z,59.70
2019-05-01T16:31:47.039Z,59.50
2019-05-01T16:34:16.786Z,59.90
2019-05-01T16:36:46.481Z,58.80
2019-05-01T16:39:27.229Z,59.80
2019-05-01T16:41:57.918Z,60.80
2019-05-01T16:44:30.293Z,60.50
2019-05-01T16:47:02.973Z,60.90
2019-05-01T16:49:33.756Z,61.00
2019-05-01T16:52:03.487Z,62.40
2019-05-01T16:54:34.237Z,60.00
2019-05-01T16:57:04.343Z,62.70
2019-05-01T16:59:34.077Z,62.70
2019-05-01T17:02:12.275Z,61.00
2019-05-01T17:04:47.868Z,61.10
2019-05-01T17:07:42.770Z,61.80
2019-05-01T17:10:24.350Z,62.10
2019-05-01T17:12:55.292Z,61.30
2019-05-01T17:15:35.369Z,60.20
2019-05-01T17:18:05.332Z,60.80
2019-05-01T17:20:34.998Z,60.10
2019-05-01T17:23:05.717Z,60.30
2019-05-01T17:25:35.694Z,59.10
2019-05-01T17:28:08.355Z,59.00
2019-05-01T17:30:41.631Z,60.50
2019-05-01T17:33:19.452Z,60.30
2019-05-01T17:35:43.273Z,59.80
2019-05-01T17:38:13.105Z,59.00
2019-05-01T17:40:42.810Z,59.10
2019-05-01T17:43:13.559Z,60.00
2019-05-01T17:45:43.554Z,60.80
2019-05-01T17:48:13.304Z,63.00
2019-05-01T17:50:42.987Z,63.20
2019-05-01T17:53:12.692Z,63.90
2019-05-01T17:55:42.402Z,63.50
2019-05-01T17:58:12.095Z,64.10
2019-05-01T18:01:18.828Z,65.70
2019-05-01T18:04:10.535Z,66.40
2019-05-01T18:06:46.069Z,67.10
2019-05-01T18:09:15.574Z,67.30
2019-05-01T18:11:47.317Z,67.20
2019-05-01T18:14:16.647Z,67.00
2019-05-01T18:16:46.361Z,68.80
2019-05-01T18:19:16.105Z,68.70
2019-05-01T18:21:51.969Z,69.20
2019-05-01T18:24:58.460Z,69.40
2019-05-01T18:28:07.174Z,70.10
2019-05-01T18:30:39.290Z,71.10
2019-05-01T18:33:08.947Z,72.50
2019-05-01T18:35:38.728Z,73.30
2019-05-01T18:38:29.177Z,73.90
2019-05-01T18:41:04.224Z,74.70
2019-05-01T18:43:34.040Z,75.40
2019-05-01T18:46:08.013Z,76.10
2019-05-01T18:48:36.762Z,76.70
2019-05-01T18:51:06.393Z,77.30
2019-05-01T18:53:36.168Z,77.90
2019-05-01T18:56:06.948Z,78.20
2019-05-01T18:58:36.950Z,78.40
2019-05-01T19:01:09.552Z,78.50
2019-05-01T19:03:42.221Z,78.50
2019-05-01T19:06:09.347Z,78.90
2019-05-01T19:08:39.010Z,79.40
2019-05-01T19:11:12.645Z,80.10
2019-05-01T19:13:40.739Z,80.80
2019-05-01T19:16:10.620Z,81.50
2019-05-01T19:18:40.346Z,81.50
2019-05-01T19:21:10.306Z,80.50
2019-05-01T19:23:39.952Z,80.50
2019-05-01T19:26:10.750Z,79.20
2019-05-01T19:28:40.492Z,79.80
2019-05-01T19:31:10.185Z,80.10
2019-05-01T19:33:41.789Z,79.80
2019-05-01T19:36:11.200Z,80.00
2019-05-01T19:38:41.060Z,80.70
2019-05-01T19:41:14.121Z,79.90
2019-05-01T19:43:42.231Z,80.60
2019-05-01T19:46:12.028Z,80.50
2019-05-01T19:48:45.423Z,80.40
2019-05-01T19:51:13.179Z,80.50
2019-05-01T19:53:46.473Z,80.40
2019-05-01T19:56:16.710Z,80.70
2019-05-01T19:58:45.666Z,80.00
2019-05-01T20:01:15.448Z,80.00
2019-05-01T20:03:45.188Z,79.80
2019-05-01T20:06:15.133Z,80.00
2019-05-01T20:08:44.805Z,80.10
2019-05-01T20:11:14.492Z,80.60
2019-05-01T20:13:44.244Z,80.20
2019-05-01T20:16:15.544Z,80.10
2019-05-01T20:18:45.312Z,80.00
2019-05-01T20:21:15.004Z,79.90
2019-05-01T20:23:44.734Z,79.80
2019-05-01T20:26:14.471Z,79.90
2019-05-01T20:28:46.992Z,80.30
2019-05-01T20:31:17.901Z,80.60
2019-05-01T20:33:48.175Z,80.60
2019-05-01T20:36:17.893Z,81.10
2019-05-01T20:38:47.625Z,80.80
2019-05-01T20:41:18.080Z,80.70
2019-05-01T20:43:47.949Z,81.40
2019-05-01T20:46:21.465Z,81.20
2019-05-01T20:48:49.030Z,80.90
2019-05-01T20:51:20.266Z,80.90
2019-05-01T20:53:57.102Z,79.70
2019-05-01T20:57:00.731Z,79.70
2019-05-01T20:59:30.488Z,79.00
2019-05-01T21:02:07.734Z,79.00
2019-05-01T21:04:49.361Z,79.50
2019-05-01T21:07:43.967Z,79.70
2019-05-01T21:10:24.152Z,80.10
2019-05-01T21:12:45.147Z,79.90
2019-05-01T21:15:14.995Z,80.20
2019-05-01T21:17:49.228Z,80.40
2019-05-01T21:20:16.097Z,80.60
2019-05-01T21:22:45.784Z,80.50
2019-05-01T21:25:15.556Z,80.80
2019-05-01T21:27:45.243Z,80.60
2019-05-01T21:30:15.332Z,80.90
2019-05-01T21:32:45.048Z,81.40
2019-05-01T21:35:14.768Z,82.50
2019-05-01T21:37:44.411Z,82.70
2019-05-01T21:40:14.175Z,82.90
2019-05-01T21:42:47.341Z,83.60
2019-05-01T21:45:15.285Z,84.20
2019-05-01T21:47:44.976Z,84.90
2019-05-01T21:50:17.741Z,85.20
2019-05-01T21:52:46.581Z,85.10
2019-05-01T21:55:16.296Z,84.10
2019-05-01T21:57:50.069Z,84.80
2019-05-01T22:00:20.025Z,84.70
2019-05-01T22:02:49.185Z,84.80
2019-05-01T22:05:18.883Z,85.40
2019-05-01T22:07:48.603Z,85.20
2019-05-01T22:10:21.607Z,85.30
2019-05-01T22:12:50.878Z,85.30
2019-05-01T22:15:28.000Z,84.80
2019-05-01T22:18:19.696Z,84.30
2019-05-01T22:20:54.589Z,83.80
2019-05-01T22:23:25.389Z,83.70
2019-05-01T22:25:56.615Z,83.20
2019-05-01T22:28:44.045Z,83.30
2019-05-01T22:31:52.795Z,83.80
2019-05-01T22:34:44.756Z,83.80
2019-05-01T22:37:14.486Z,83.50
2019-05-01T22:39:46.523Z,82.80
2019-05-01T22:42:16.264Z,83.60
2019-05-01T22:44:45.959Z,84.70
2019-05-01T22:47:16.316Z,85.40
2019-05-01T22:49:45.948Z,85.50
2019-05-01T22:52:15.643Z,85.60
2019-05-01T22:54:48.937Z,85.00
2019-05-01T22:57:18.319Z,85.10
2019-05-01T22:59:48.042Z,84.70
2019-05-01T23:02:38.620Z,84.80
2019-05-01T23:05:08.825Z,84.90
2019-05-01T23:07:38.600Z,84.90
2019-05-01T23:10:10.096Z,84.50
2019-05-01T23:12:39.829Z,84.40
2019-05-01T23:15:15.058Z,84.20
2019-05-01T23:17:46.299Z,83.60
2019-05-01T23:20:16.740Z,82.60
2019-05-01T23:22:46.545Z,82.90
2019-05-01T23:25:16.382Z,83.20
2019-05-01T23:27:46.220Z,83.90
2019-05-01T23:30:18.263Z,84.80
2019-05-01T23:32:47.960Z,82.90
2019-05-01T23:35:17.677Z,83.40
2019-05-01T23:37:47.403Z,84.10
2019-05-01T23:40:17.222Z,84.60
2019-05-01T23:42:52.469Z,84.50
2019-05-01T23:45:18.584Z,84.30
2019-05-01T23:47:48.297Z,83.50
2019-05-01T23:50:18.208Z,83.80
2019-05-01T23:52:47.927Z,83.70
2019-05-01T23:55:17.641Z,83.50
2019-05-01T23:57:47.335Z,83.60
